This is the latest recevied weather packets stored in our database for station/object IR1CH-3. If no packets are shown the sender has not sent any weather packets the latest 10 day(s).
| Time | Temp. | Humidity | Pressure | Rain* | Wind** | Luminosity | Snow |
|---|---|---|---|---|---|---|---|
| 1778101865 | 15° C | 99% | 1010.6 hPa | - | - | - | - |
| 1778100095 | 15.56° C | 99% | 1010.4 hPa | - | - | - | - |
| 1778098294 | 15.56° C | 99% | 1009.8 hPa | - | - | - | - |
| 1778096494 | 15.56° C | 99% | 1009.5 hPa | - | - | - | - |
| 1778094694 | 15° C | 99% | 1009.6 hPa | - | - | - | - |
| 1778092893 | 15.56° C | 99% | 1008.9 hPa | - | - | - | - |
| 1778091093 | 15° C | 99% | 1009.1 hPa | - | - | - | - |
| 1778089293 | 15° C | 99% | 1008.6 hPa | - | - | - | - |
| 1778087492 | 16.11° C | 98% | 1007.6 hPa | - | - | - | - |
| 1778085692 | 16.67° C | 97% | 1007.3 hPa | - | - | - | - |
| 1778083892 | 16.67° C | 99% | 1007.3 hPa | - | - | - | - |
| 1778082091 | 16.67° C | 99% | 1007.4 hPa | - | - | - | - |
| 1778080291 | 16.67° C | 99% | 1007.4 hPa | - | - | - | - |
| 1778078491 | 16.11° C | 99% | 1007.9 hPa | - | - | - | - |
| 1778076690 | 16.11° C | 99% | 1008.4 hPa | - | - | - | - |
| 1778074890 | 16.11° C | 99% | 1008 hPa | - | - | - | - |
| 1778073090 | 16.67° C | 99% | 1007.8 hPa | - | - | - | - |
| 1778071289 | 18.33° C | 84% | 1007.4 hPa | - | - | - | - |
| 1778069489 | 16.67° C | 99% | 1008 hPa | - | - | - | - |
| 1778067689 | 16.11° C | 99% | 1008.5 hPa | - | - | - | - |
| 1778065888 | 16.67° C | 99% | 1008.4 hPa | - | - | - | - |
| 1778064088 | 16.11° C | 99% | 1008.8 hPa | - | - | - | - |
| 1778062288 | 16.11° C | 99% | 1008.9 hPa | - | - | - | - |
| 1778060488 | 15° C | 99% | 1009.1 hPa | - | - | - | - |
| 1778058687 | 15° C | 99% | 1009.1 hPa | - | - | - | - |
* Rain since midnight (hover to see other rain measurements)
** Current wind speed in m/s (hover to see current wind gust speed)